sensor_id;sensor_type;location;lat;lon;timestamp;P1;durP1;ratioP1;P2;durP2;ratioP2
48361;SDS011;34510;51.888;5.670;2023-06-24T00:00:05;1085.97;;;985.05;;
48361;SDS011;34510;51.888;5.670;2023-06-24T00:05:08;1078.53;;;978.33;;
48361;SDS011;34510;51.888;5.670;2023-06-24T00:10:11;1073.38;;;972.97;;
48361;SDS011;34510;51.888;5.670;2023-06-24T00:15:14;1069.30;;;968.60;;
48361;SDS011;34510;51.888;5.670;2023-06-24T00:20:17;1077.80;;;976.88;;
48361;SDS011;34510;51.888;5.670;2023-06-24T00:25:21;1068.85;;;968.65;;
48361;SDS011;34510;51.888;5.670;2023-06-24T00:30:23;1076.68;;;975.75;;
48361;SDS011;34510;51.888;5.670;2023-06-24T00:35:25;1060.57;;;960.80;;
48361;SDS011;34510;51.888;5.670;2023-06-24T00:40:27;1061.93;;;961.90;;
48361;SDS011;34510;51.888;5.670;2023-06-24T00:45:29;1050.20;;;951.03;;
48361;SDS011;34510;51.888;5.670;2023-06-24T00:50:31;1055.40;;;955.80;;
48361;SDS011;34510;51.888;5.670;2023-06-24T00:55:33;1050.63;;;951.55;;
48361;SDS011;34510;51.888;5.670;2023-06-24T01:00:36;1056.25;;;956.33;;
48361;SDS011;34510;51.888;5.670;2023-06-24T01:05:43;1053.60;;;954.25;;
48361;SDS011;34510;51.888;5.670;2023-06-24T01:10:46;1053.82;;;953.78;;
48361;SDS011;34510;51.888;5.670;2023-06-24T01:15:48;1058.70;;;958.83;;
48361;SDS011;34510;51.888;5.670;2023-06-24T01:31:29;1063.03;;;962.63;;
48361;SDS011;34510;51.888;5.670;2023-06-24T01:36:55;1047.30;;;948.53;;
48361;SDS011;34510;51.888;5.670;2023-06-24T01:42:06;1045.95;;;946.85;;
48361;SDS011;34510;51.888;5.670;2023-06-24T01:47:11;1045.93;;;946.80;;
48361;SDS011;34510;51.888;5.670;2023-06-24T01:52:17;1043.88;;;944.97;;
48361;SDS011;34510;51.888;5.670;2023-06-24T01:57:22;1047.13;;;948.08;;
48361;SDS011;34510;51.888;5.670;2023-06-24T02:02:25;1043.38;;;944.67;;
48361;SDS011;34510;51.888;5.670;2023-06-24T02:07:28;1039.53;;;940.47;;
48361;SDS011;34510;51.888;5.670;2023-06-24T02:12:31;1036.60;;;937.60;;
48361;SDS011;34510;51.888;5.670;2023-06-24T02:17:34;1048.13;;;948.75;;
48361;SDS011;34510;51.888;5.670;2023-06-24T02:22:38;1027.80;;;930.05;;
48361;SDS011;34510;51.888;5.670;2023-06-24T02:27:42;1031.22;;;932.90;;
48361;SDS011;34510;51.888;5.670;2023-06-24T02:32:44;1039.80;;;940.85;;
48361;SDS011;34510;51.888;5.670;2023-06-24T02:37:46;1026.78;;;928.92;;
48361;SDS011;34510;51.888;5.670;2023-06-24T02:42:50;1034.00;;;936.10;;
48361;SDS011;34510;51.888;5.670;2023-06-24T02:47:52;1018.53;;;921.42;;
48361;SDS011;34510;51.888;5.670;2023-06-24T02:52:56;1014.88;;;917.10;;
48361;SDS011;34510;51.888;5.670;2023-06-24T02:58:03;1009.63;;;912.38;;
48361;SDS011;34510;51.888;5.670;2023-06-24T03:03:14;1012.13;;;914.90;;
48361;SDS011;34510;51.888;5.670;2023-06-24T03:08:25;1015.58;;;918.25;;
48361;SDS011;34510;51.888;5.670;2023-06-24T03:13:27;1004.72;;;908.53;;
48361;SDS011;34510;51.888;5.670;2023-06-24T03:18:44;1005.63;;;909.00;;
48361;SDS011;34510;51.888;5.670;2023-06-24T03:23:46;1000.47;;;903.83;;
48361;SDS011;34510;51.888;5.670;2023-06-24T03:28:50;1004.03;;;906.60;;
48361;SDS011;34510;51.888;5.670;2023-06-24T03:33:52;1000.63;;;903.67;;
48361;SDS011;34510;51.888;5.670;2023-06-24T03:38:54;1016.65;;;919.20;;
48361;SDS011;34510;51.888;5.670;2023-06-24T03:43:56;1022.25;;;924.35;;
48361;SDS011;34510;51.888;5.670;2023-06-24T03:48:59;995.22;;;898.70;;
48361;SDS011;34510;51.888;5.670;2023-06-24T03:54:03;1016.88;;;918.90;;
48361;SDS011;34510;51.888;5.670;2023-06-24T03:59:05;1001.53;;;904.97;;
48361;SDS011;34510;51.888;5.670;2023-06-24T04:04:09;1008.63;;;911.25;;
48361;SDS011;34510;51.888;5.670;2023-06-24T04:09:11;1012.45;;;915.08;;
48361;SDS011;34510;51.888;5.670;2023-06-24T04:14:13;1005.53;;;908.92;;
48361;SDS011;34510;51.888;5.670;2023-06-24T04:19:15;1004.92;;;908.63;;
48361;SDS011;34510;51.888;5.670;2023-06-24T04:24:18;1017.33;;;919.22;;
48361;SDS011;34510;51.888;5.670;2023-06-24T04:29:21;1012.97;;;914.28;;
48361;SDS011;34510;51.888;5.670;2023-06-24T04:34:22;1018.00;;;920.25;;
48361;SDS011;34510;51.888;5.670;2023-06-24T04:39:24;1019.80;;;922.20;;
48361;SDS011;34510;51.888;5.670;2023-06-24T04:44:26;1004.85;;;908.30;;
48361;SDS011;34510;51.888;5.670;2023-06-24T04:49:28;1016.08;;;918.53;;
48361;SDS011;34510;51.888;5.670;2023-06-24T04:54:30;1024.38;;;926.00;;
48361;SDS011;34510;51.888;5.670;2023-06-24T04:59:32;1020.95;;;922.92;;
48361;SDS011;34510;51.888;5.670;2023-06-24T05:04:34;1039.05;;;939.45;;
48361;SDS011;34510;51.888;5.670;2023-06-24T05:09:36;1045.18;;;945.55;;
48361;SDS011;34510;51.888;5.670;2023-06-24T05:14:39;1051.53;;;952.08;;
48361;SDS011;34510;51.888;5.670;2023-06-24T05:19:41;1052.40;;;952.33;;
48361;SDS011;34510;51.888;5.670;2023-06-24T05:24:43;1052.22;;;952.35;;
48361;SDS011;34510;51.888;5.670;2023-06-24T05:29:45;1069.05;;;968.10;;
48361;SDS011;34510;51.888;5.670;2023-06-24T05:34:47;1064.72;;;964.25;;
48361;SDS011;34510;51.888;5.670;2023-06-24T05:39:49;1076.22;;;975.05;;
48361;SDS011;34510;51.888;5.670;2023-06-24T05:44:51;1091.32;;;989.25;;
48361;SDS011;34510;51.888;5.670;2023-06-24T05:49:53;1081.82;;;980.47;;
48361;SDS011;34510;51.888;5.670;2023-06-24T05:54:55;1089.18;;;987.80;;
48361;SDS011;34510;51.888;5.670;2023-06-24T05:59:57;1103.38;;;998.60;;
48361;SDS011;34510;51.888;5.670;2023-06-24T06:04:59;1107.05;;;999.00;;
48361;SDS011;34510;51.888;5.670;2023-06-24T06:10:03;1101.72;;;996.58;;
48361;SDS011;34510;51.888;5.670;2023-06-24T06:15:05;1105.57;;;998.97;;
48361;SDS011;34510;51.888;5.670;2023-06-24T06:20:08;1128.28;;;999.90;;
48361;SDS011;34510;51.888;5.670;2023-06-24T06:25:10;1130.45;;;999.90;;
48361;SDS011;34510;51.888;5.670;2023-06-24T06:30:13;1123.57;;;999.90;;
48361;SDS011;34510;51.888;5.670;2023-06-24T06:35:15;1117.10;;;999.90;;
48361;SDS011;34510;51.888;5.670;2023-06-24T06:40:17;1141.65;;;999.90;;
48361;SDS011;34510;51.888;5.670;2023-06-24T06:45:23;1137.43;;;999.90;;
48361;SDS011;34510;51.888;5.670;2023-06-24T06:50:25;1140.72;;;999.90;;
48361;SDS011;34510;51.888;5.670;2023-06-24T06:55:27;1143.35;;;999.90;;
48361;SDS011;34510;51.888;5.670;2023-06-24T07:00:29;1151.38;;;999.90;;
48361;SDS011;34510;51.888;5.670;2023-06-24T07:05:31;1147.10;;;999.90;;
48361;SDS011;34510;51.888;5.670;2023-06-24T07:10:34;1143.57;;;999.90;;
48361;SDS011;34510;51.888;5.670;2023-06-24T07:15:36;1160.25;;;999.90;;
48361;SDS011;34510;51.888;5.670;2023-06-24T07:20:38;1162.00;;;999.90;;
48361;SDS011;34510;51.888;5.670;2023-06-24T07:25:43;1162.53;;;999.90;;
48361;SDS011;34510;51.888;5.670;2023-06-24T07:30:45;1168.30;;;999.90;;
48361;SDS011;34510;51.888;5.670;2023-06-24T07:35:46;1153.55;;;999.90;;
48361;SDS011;34510;51.888;5.670;2023-06-24T07:40:48;1161.20;;;999.90;;
48361;SDS011;34510;51.888;5.670;2023-06-24T07:45:50;1168.05;;;999.90;;
48361;SDS011;34510;51.888;5.670;2023-06-24T07:50:52;1198.65;;;999.90;;
48361;SDS011;34510;51.888;5.670;2023-06-24T07:55:54;1197.63;;;999.90;;
48361;SDS011;34510;51.888;5.670;2023-06-24T08:00:56;1183.82;;;999.90;;
48361;SDS011;34510;51.888;5.670;2023-06-24T08:05:58;1188.65;;;999.90;;
48361;SDS011;34510;51.888;5.670;2023-06-24T08:11:01;1202.18;;;999.90;;
48361;SDS011;34510;51.888;5.670;2023-06-24T08:16:07;1204.53;;;999.90;;
48361;SDS011;34510;51.888;5.670;2023-06-24T08:21:08;1217.90;;;999.90;;
48361;SDS011;34510;51.888;5.670;2023-06-24T08:26:10;1209.43;;;999.90;;
48361;SDS011;34510;51.888;5.670;2023-06-24T08:31:18;1224.55;;;999.90;;
48361;SDS011;34510;51.888;5.670;2023-06-24T08:36:25;1201.17;;;999.90;;
48361;SDS011;34510;51.888;5.670;2023-06-24T08:41:28;1215.38;;;999.90;;
48361;SDS011;34510;51.888;5.670;2023-06-24T08:46:30;1221.50;;;999.90;;
48361;SDS011;34510;51.888;5.670;2023-06-24T08:51:35;1226.38;;;999.90;;
48361;SDS011;34510;51.888;5.670;2023-06-24T08:56:45;1229.47;;;999.90;;
48361;SDS011;34510;51.888;5.670;2023-06-24T09:01:47;1243.95;;;999.90;;
48361;SDS011;34510;51.888;5.670;2023-06-24T09:06:49;1242.25;;;999.90;;
48361;SDS011;34510;51.888;5.670;2023-06-24T09:11:54;1264.18;;;999.90;;
48361;SDS011;34510;51.888;5.670;2023-06-24T09:17:00;1255.15;;;999.90;;
48361;SDS011;34510;51.888;5.670;2023-06-24T09:22:04;1249.10;;;999.90;;
48361;SDS011;34510;51.888;5.670;2023-06-24T09:27:07;1254.53;;;999.90;;
48361;SDS011;34510;51.888;5.670;2023-06-24T09:32:09;1252.82;;;999.90;;
48361;SDS011;34510;51.888;5.670;2023-06-24T09:37:12;1257.28;;;999.90;;
48361;SDS011;34510;51.888;5.670;2023-06-24T09:42:23;1253.50;;;999.90;;
48361;SDS011;34510;51.888;5.670;2023-06-24T09:47:25;1250.30;;;999.90;;
48361;SDS011;34510;51.888;5.670;2023-06-24T09:52:29;1254.18;;;999.90;;
48361;SDS011;34510;51.888;5.670;2023-06-24T09:57:32;1247.82;;;999.90;;
48361;SDS011;34510;51.888;5.670;2023-06-24T10:02:37;1263.15;;;999.90;;
48361;SDS011;34510;51.888;5.670;2023-06-24T10:07:39;1265.80;;;999.90;;
48361;SDS011;34510;51.888;5.670;2023-06-24T10:12:42;1264.22;;;999.90;;
48361;SDS011;34510;51.888;5.670;2023-06-24T10:17:44;1270.47;;;999.90;;
48361;SDS011;34510;51.888;5.670;2023-06-24T10:22:47;1267.30;;;999.90;;
48361;SDS011;34510;51.888;5.670;2023-06-24T10:27:58;1273.57;;;999.90;;
48361;SDS011;34510;51.888;5.670;2023-06-24T10:32:59;1277.70;;;999.90;;
48361;SDS011;34510;51.888;5.670;2023-06-24T10:38:03;1276.22;;;999.90;;
48361;SDS011;34510;51.888;5.670;2023-06-24T10:48:25;1287.32;;;999.90;;
48361;SDS011;34510;51.888;5.670;2023-06-24T10:53:27;1289.43;;;999.90;;
48361;SDS011;34510;51.888;5.670;2023-06-24T10:58:31;1290.45;;;999.90;;
48361;SDS011;34510;51.888;5.670;2023-06-24T11:03:34;1292.78;;;999.90;;
48361;SDS011;34510;51.888;5.670;2023-06-24T11:08:42;1294.38;;;999.90;;
48361;SDS011;34510;51.888;5.670;2023-06-24T11:13:47;1293.80;;;999.90;;
48361;SDS011;34510;51.888;5.670;2023-06-24T11:18:49;1297.90;;;999.90;;
48361;SDS011;34510;51.888;5.670;2023-06-24T11:23:51;1296.60;;;999.90;;
48361;SDS011;34510;51.888;5.670;2023-06-24T11:28:53;1299.72;;;999.90;;
48361;SDS011;34510;51.888;5.670;2023-06-24T11:33:55;1303.50;;;999.90;;
48361;SDS011;34510;51.888;5.670;2023-06-24T11:38:57;1301.25;;;999.90;;
48361;SDS011;34510;51.888;5.670;2023-06-24T11:43:59;1301.60;;;999.90;;
48361;SDS011;34510;51.888;5.670;2023-06-24T11:54:08;1301.00;;;999.90;;
48361;SDS011;34510;51.888;5.670;2023-06-24T11:59:22;1309.90;;;999.90;;
48361;SDS011;34510;51.888;5.670;2023-06-24T12:04:27;1313.03;;;999.90;;
48361;SDS011;34510;51.888;5.670;2023-06-24T12:09:32;1309.88;;;999.90;;
48361;SDS011;34510;51.888;5.670;2023-06-24T12:14:35;1311.53;;;999.90;;
48361;SDS011;34510;51.888;5.670;2023-06-24T12:19:36;1320.65;;;999.90;;
48361;SDS011;34510;51.888;5.670;2023-06-24T12:24:38;1312.65;;;999.90;;
48361;SDS011;34510;51.888;5.670;2023-06-24T12:29:40;1316.47;;;999.90;;
48361;SDS011;34510;51.888;5.670;2023-06-24T12:34:42;1314.97;;;999.90;;
48361;SDS011;34510;51.888;5.670;2023-06-24T12:39:44;1313.57;;;999.90;;
48361;SDS011;34510;51.888;5.670;2023-06-24T12:44:47;1312.35;;;999.90;;
48361;SDS011;34510;51.888;5.670;2023-06-24T12:49:50;1313.00;;;999.90;;
48361;SDS011;34510;51.888;5.670;2023-06-24T12:54:52;1317.53;;;999.90;;
48361;SDS011;34510;51.888;5.670;2023-06-24T12:59:54;1323.05;;;999.90;;
48361;SDS011;34510;51.888;5.670;2023-06-24T13:04:56;1325.82;;;999.90;;
48361;SDS011;34510;51.888;5.670;2023-06-24T13:09:58;1323.10;;;999.90;;
48361;SDS011;34510;51.888;5.670;2023-06-24T13:15:05;1324.22;;;999.90;;
48361;SDS011;34510;51.888;5.670;2023-06-24T13:20:07;1320.63;;;999.90;;
48361;SDS011;34510;51.888;5.670;2023-06-24T13:25:09;1321.22;;;999.90;;
48361;SDS011;34510;51.888;5.670;2023-06-24T13:30:12;1323.25;;;999.90;;
48361;SDS011;34510;51.888;5.670;2023-06-24T13:35:16;1321.93;;;999.90;;
48361;SDS011;34510;51.888;5.670;2023-06-24T13:40:18;1319.00;;;999.90;;
48361;SDS011;34510;51.888;5.670;2023-06-24T13:45:20;1317.47;;;999.90;;
48361;SDS011;34510;51.888;5.670;2023-06-24T13:50:22;1317.80;;;999.90;;
48361;SDS011;34510;51.888;5.670;2023-06-24T13:55:24;1316.28;;;999.90;;
48361;SDS011;34510;51.888;5.670;2023-06-24T14:00:26;1318.65;;;999.90;;
48361;SDS011;34510;51.888;5.670;2023-06-24T14:05:28;1310.78;;;999.90;;
48361;SDS011;34510;51.888;5.670;2023-06-24T14:10:30;1313.35;;;999.90;;
48361;SDS011;34510;51.888;5.670;2023-06-24T14:15:32;1317.85;;;999.90;;
48361;SDS011;34510;51.888;5.670;2023-06-24T14:20:34;1322.22;;;999.90;;
48361;SDS011;34510;51.888;5.670;2023-06-24T14:25:36;1321.60;;;999.90;;
48361;SDS011;34510;51.888;5.670;2023-06-24T14:30:39;1324.45;;;999.90;;
48361;SDS011;34510;51.888;5.670;2023-06-24T14:35:41;1322.95;;;999.90;;
48361;SDS011;34510;51.888;5.670;2023-06-24T14:40:44;1319.28;;;999.90;;
48361;SDS011;34510;51.888;5.670;2023-06-24T14:45:46;1321.93;;;999.90;;
48361;SDS011;34510;51.888;5.670;2023-06-24T14:50:48;1322.03;;;999.90;;
48361;SDS011;34510;51.888;5.670;2023-06-24T14:55:50;1329.03;;;999.90;;
48361;SDS011;34510;51.888;5.670;2023-06-24T15:00:52;1318.45;;;999.90;;
48361;SDS011;34510;51.888;5.670;2023-06-24T15:05:54;1312.10;;;999.90;;
48361;SDS011;34510;51.888;5.670;2023-06-24T15:10:55;1313.07;;;999.90;;
48361;SDS011;34510;51.888;5.670;2023-06-24T15:15:57;1309.85;;;999.90;;
48361;SDS011;34510;51.888;5.670;2023-06-24T15:21:05;1308.80;;;999.90;;
48361;SDS011;34510;51.888;5.670;2023-06-24T15:26:07;1305.97;;;999.90;;
48361;SDS011;34510;51.888;5.670;2023-06-24T15:31:09;1303.55;;;999.90;;
48361;SDS011;34510;51.888;5.670;2023-06-24T15:36:11;1304.88;;;999.90;;
48361;SDS011;34510;51.888;5.670;2023-06-24T15:41:13;1308.18;;;999.90;;
48361;SDS011;34510;51.888;5.670;2023-06-24T15:46:18;1303.10;;;999.90;;
48361;SDS011;34510;51.888;5.670;2023-06-24T15:51:20;1305.93;;;999.90;;
48361;SDS011;34510;51.888;5.670;2023-06-24T15:56:22;1296.97;;;999.90;;
48361;SDS011;34510;51.888;5.670;2023-06-24T16:01:24;1293.05;;;999.90;;
48361;SDS011;34510;51.888;5.670;2023-06-24T16:06:26;1297.47;;;999.90;;
48361;SDS011;34510;51.888;5.670;2023-06-24T16:11:28;1293.45;;;999.90;;
48361;SDS011;34510;51.888;5.670;2023-06-24T16:16:33;1294.40;;;999.90;;
48361;SDS011;34510;51.888;5.670;2023-06-24T16:21:35;1290.32;;;999.90;;
48361;SDS011;34510;51.888;5.670;2023-06-24T16:26:37;1292.43;;;999.90;;
48361;SDS011;34510;51.888;5.670;2023-06-24T16:31:53;1290.40;;;999.90;;
48361;SDS011;34510;51.888;5.670;2023-06-24T16:36:55;1297.68;;;999.90;;
48361;SDS011;34510;51.888;5.670;2023-06-24T16:41:57;1294.50;;;999.90;;
48361;SDS011;34510;51.888;5.670;2023-06-24T16:46:59;1300.30;;;999.90;;
48361;SDS011;34510;51.888;5.670;2023-06-24T16:52:01;1299.18;;;999.90;;
48361;SDS011;34510;51.888;5.670;2023-06-24T16:57:03;1305.38;;;999.90;;
48361;SDS011;34510;51.888;5.670;2023-06-24T17:02:05;1299.28;;;999.90;;
48361;SDS011;34510;51.888;5.670;2023-06-24T17:07:07;1304.30;;;999.90;;
48361;SDS011;34510;51.888;5.670;2023-06-24T17:12:09;1302.60;;;999.90;;
48361;SDS011;34510;51.888;5.670;2023-06-24T17:17:11;1297.28;;;999.90;;
48361;SDS011;34510;51.888;5.670;2023-06-24T17:22:13;1296.57;;;999.90;;
48361;SDS011;34510;51.888;5.670;2023-06-24T17:27:15;1296.20;;;999.90;;
48361;SDS011;34510;51.888;5.670;2023-06-24T17:32:17;1297.45;;;999.90;;
48361;SDS011;34510;51.888;5.670;2023-06-24T17:37:19;1291.10;;;999.90;;
48361;SDS011;34510;51.888;5.670;2023-06-24T17:42:21;1291.65;;;999.90;;
48361;SDS011;34510;51.888;5.670;2023-06-24T17:47:23;1293.10;;;999.90;;
48361;SDS011;34510;51.888;5.670;2023-06-24T17:52:25;1298.22;;;999.90;;
48361;SDS011;34510;51.888;5.670;2023-06-24T17:57:27;1299.55;;;999.90;;
48361;SDS011;34510;51.888;5.670;2023-06-24T18:02:29;1290.03;;;999.90;;
48361;SDS011;34510;51.888;5.670;2023-06-24T18:07:31;1290.65;;;999.90;;
48361;SDS011;34510;51.888;5.670;2023-06-24T18:12:33;1294.95;;;999.90;;
48361;SDS011;34510;51.888;5.670;2023-06-24T18:17:35;1291.82;;;999.90;;
48361;SDS011;34510;51.888;5.670;2023-06-24T18:22:37;1294.93;;;999.90;;
48361;SDS011;34510;51.888;5.670;2023-06-24T18:27:39;1288.22;;;999.90;;
48361;SDS011;34510;51.888;5.670;2023-06-24T18:32:43;1290.15;;;999.90;;
48361;SDS011;34510;51.888;5.670;2023-06-24T18:37:45;1291.05;;;999.90;;
48361;SDS011;34510;51.888;5.670;2023-06-24T18:42:49;1289.80;;;999.90;;
48361;SDS011;34510;51.888;5.670;2023-06-24T18:47:50;1289.80;;;999.90;;
48361;SDS011;34510;51.888;5.670;2023-06-24T18:52:54;1276.30;;;999.90;;
48361;SDS011;34510;51.888;5.670;2023-06-24T18:57:56;1282.50;;;999.90;;
48361;SDS011;34510;51.888;5.670;2023-06-24T19:02:58;1279.72;;;999.90;;
48361;SDS011;34510;51.888;5.670;2023-06-24T19:08:01;1293.07;;;999.90;;
48361;SDS011;34510;51.888;5.670;2023-06-24T19:13:02;1290.20;;;999.90;;
48361;SDS011;34510;51.888;5.670;2023-06-24T19:18:05;1282.03;;;999.90;;
48361;SDS011;34510;51.888;5.670;2023-06-24T19:23:07;1272.88;;;999.90;;
48361;SDS011;34510;51.888;5.670;2023-06-24T19:28:09;1273.30;;;999.90;;
48361;SDS011;34510;51.888;5.670;2023-06-24T19:33:11;1278.78;;;999.90;;
48361;SDS011;34510;51.888;5.670;2023-06-24T19:38:13;1275.68;;;999.90;;
48361;SDS011;34510;51.888;5.670;2023-06-24T19:43:15;1260.65;;;999.90;;
48361;SDS011;34510;51.888;5.670;2023-06-24T19:48:17;1259.50;;;999.90;;
48361;SDS011;34510;51.888;5.670;2023-06-24T19:53:21;1255.57;;;999.90;;
48361;SDS011;34510;51.888;5.670;2023-06-24T19:58:23;1255.78;;;999.90;;
48361;SDS011;34510;51.888;5.670;2023-06-24T20:03:25;1257.75;;;999.90;;
48361;SDS011;34510;51.888;5.670;2023-06-24T20:08:27;1259.03;;;999.90;;
48361;SDS011;34510;51.888;5.670;2023-06-24T20:13:29;1254.10;;;999.90;;
48361;SDS011;34510;51.888;5.670;2023-06-24T20:18:31;1251.65;;;999.90;;
48361;SDS011;34510;51.888;5.670;2023-06-24T20:23:33;1250.18;;;999.90;;
48361;SDS011;34510;51.888;5.670;2023-06-24T20:28:35;1245.63;;;999.90;;
48361;SDS011;34510;51.888;5.670;2023-06-24T20:33:37;1241.55;;;999.90;;
48361;SDS011;34510;51.888;5.670;2023-06-24T20:38:39;1227.72;;;999.90;;
48361;SDS011;34510;51.888;5.670;2023-06-24T20:43:43;1219.47;;;999.90;;
48361;SDS011;34510;51.888;5.670;2023-06-24T20:48:45;1221.10;;;999.90;;
48361;SDS011;34510;51.888;5.670;2023-06-24T20:53:47;1212.55;;;999.90;;
48361;SDS011;34510;51.888;5.670;2023-06-24T20:58:49;1210.90;;;999.90;;
48361;SDS011;34510;51.888;5.670;2023-06-24T21:03:51;1224.15;;;999.90;;
48361;SDS011;34510;51.888;5.670;2023-06-24T21:08:53;1216.28;;;999.90;;
48361;SDS011;34510;51.888;5.670;2023-06-24T21:13:55;1203.18;;;999.90;;
48361;SDS011;34510;51.888;5.670;2023-06-24T21:18:57;1209.85;;;999.90;;
48361;SDS011;34510;51.888;5.670;2023-06-24T21:24:00;1201.82;;;999.90;;
48361;SDS011;34510;51.888;5.670;2023-06-24T21:29:04;1203.90;;;999.90;;
48361;SDS011;34510;51.888;5.670;2023-06-24T21:34:06;1191.72;;;999.90;;
48361;SDS011;34510;51.888;5.670;2023-06-24T21:39:08;1202.88;;;999.90;;
48361;SDS011;34510;51.888;5.670;2023-06-24T21:44:10;1196.10;;;999.90;;
48361;SDS011;34510;51.888;5.670;2023-06-24T21:49:12;1190.75;;;999.90;;
48361;SDS011;34510;51.888;5.670;2023-06-24T21:54:14;1189.75;;;999.90;;
48361;SDS011;34510;51.888;5.670;2023-06-24T21:59:16;1196.00;;;999.90;;
48361;SDS011;34510;51.888;5.670;2023-06-24T22:04:20;1186.93;;;999.90;;
48361;SDS011;34510;51.888;5.670;2023-06-24T22:09:22;1185.75;;;999.90;;
48361;SDS011;34510;51.888;5.670;2023-06-24T22:14:24;1185.68;;;999.90;;
48361;SDS011;34510;51.888;5.670;2023-06-24T22:19:26;1176.85;;;999.90;;
48361;SDS011;34510;51.888;5.670;2023-06-24T22:24:28;1185.40;;;999.90;;
48361;SDS011;34510;51.888;5.670;2023-06-24T22:29:30;1182.38;;;999.90;;
48361;SDS011;34510;51.888;5.670;2023-06-24T22:34:32;1176.85;;;999.90;;
48361;SDS011;34510;51.888;5.670;2023-06-24T22:39:34;1174.53;;;999.90;;
48361;SDS011;34510;51.888;5.670;2023-06-24T22:44:36;1169.18;;;999.90;;
48361;SDS011;34510;51.888;5.670;2023-06-24T22:49:38;1181.07;;;999.90;;
48361;SDS011;34510;51.888;5.670;2023-06-24T22:54:40;1183.82;;;999.90;;
48361;SDS011;34510;51.888;5.670;2023-06-24T22:59:41;1156.85;;;999.90;;
48361;SDS011;34510;51.888;5.670;2023-06-24T23:04:43;1150.50;;;999.90;;
48361;SDS011;34510;51.888;5.670;2023-06-24T23:09:46;1145.30;;;999.90;;
48361;SDS011;34510;51.888;5.670;2023-06-24T23:14:48;1153.15;;;999.90;;
48361;SDS011;34510;51.888;5.670;2023-06-24T23:19:50;1148.65;;;999.90;;
48361;SDS011;34510;51.888;5.670;2023-06-24T23:24:52;1154.40;;;999.90;;
48361;SDS011;34510;51.888;5.670;2023-06-24T23:29:55;1153.28;;;999.90;;
48361;SDS011;34510;51.888;5.670;2023-06-24T23:34:58;1147.05;;;999.90;;
48361;SDS011;34510;51.888;5.670;2023-06-24T23:40:01;1152.28;;;999.90;;
48361;SDS011;34510;51.888;5.670;2023-06-24T23:45:06;1147.88;;;999.90;;
48361;SDS011;34510;51.888;5.670;2023-06-24T23:50:08;1141.72;;;999.90;;
48361;SDS011;34510;51.888;5.670;2023-06-24T23:55:10;1141.15;;;999.90;;
